Time;durP1;ratioP1;P1;durP2;ratioP2;P2;SDS_P1;SDS_P2;PMS_P1;PMS_P2;Temp;Humidity;BMP_temperature;BMP_pressure;BME280_temperature;BME280_humidity;BME280_pressure;Samples;Min_cycle;Max_cycle;Signal;HPM_P1;HPM_P2
2021/03/02 10:16:48;;;;;;;48.70;28.70;;;;;;;;;;6245437;22;20015;-90
2021/03/02 10:25:19;;;;;;;51.75;29.83;;;;;;;;;;6241555;22;20039;-93
2021/03/02 10:27:58;;;;;;;45.60;29.35;;;7.40;95.20;;;;;;6247228;23;20043;-92
2021/03/02 10:30:24;;;;;;;40.30;28.00;;;;;;;;;;6243134;23;20008;-92
2021/03/02 10:32:53;;;;;;;47.30;28.63;;;;;;;;;;6239648;23;20012;-93
2021/03/02 10:35:23;;;;;;;40.08;28.35;;;11.50;83.40;;;;;;6241822;23;20012;-93
2021/03/02 10:37:49;;;;;;;46.05;28.23;;;13.10;76.50;;;;;;6239319;23;20012;-93
2021/03/02 10:40:16;;;;;;;46.92;28.48;;;13.20;75.90;;;;;;6266113;23;20007;-93
2021/03/02 10:42:42;;;;;;;40.70;26.60;;;13.30;75.60;;;;;;6241660;23;20008;-93
2021/03/02 10:45:09;;;;;;;47.65;29.23;;;13.30;74.40;;;;;;6240038;23;20015;-92
2021/03/02 10:47:36;;;;;;;42.17;26.20;;;13.20;75.00;;;;;;6267010;23;20035;-93
2021/03/02 10:50:03;;;;;;;40.20;27.77;;;13.00;75.00;;;;;;6238243;23;20008;-94
2021/03/02 10:52:29;;;;;;;39.15;28.80;;;13.10;74.60;;;;;;6264030;23;20030;-94
2021/03/02 10:54:55;;;;;;;39.85;28.08;;;13.30;74.00;;;;;;6232437;23;20012;-93
2021/03/02 10:57:21;;;;;;;41.92;27.92;;;13.80;72.90;;;;;;6227768;23;20015;-93
2021/03/02 10:59:47;;;;;;;40.55;27.38;;;14.20;70.20;;;;;;6255599;23;20008;-91
2021/03/02 11:02:13;;;;;;;42.60;28.27;;;;;;;;;;6232640;23;20030;-93
2021/03/02 11:04:39;;;;;;;44.22;27.55;;;14.80;68.30;;;;;;6257061;23;20007;-90
2021/03/02 11:07:07;;;;;;;41.22;26.30;;;17.20;58.10;;;;;;6222455;23;20071;-92
2021/03/02 11:09:39;;;;;;;37.67;26.63;;;17.50;54.30;;;;;;6256030;23;20497;-93
2021/03/02 11:12:07;;;;;;;38.08;26.45;;;;;;;;;;6258039;23;19996;-91
2021/03/02 11:14:33;;;;;;;48.42;27.27;;;;;;;;;;6225971;23;20071;-91
2021/03/02 11:17:02;;;;;;;43.83;31.05;;;;;;;;;;6224105;23;20012;-89
2021/03/02 11:19:28;;;;;;;48.60;29.42;;;;;;;;;;6201184;23;20012;-88
2021/03/02 11:21:55;;;;;;;56.05;31.45;;;;;;;;;;6226341;23;20004;-89
2021/03/02 11:24:23;;;;;;;47.47;29.60;;;;;;;;;;6221078;23;20009;-90
2021/03/02 11:26:50;;;;;;;39.42;25.55;;;;;;;;;;6226681;23;20015;-92
2021/03/02 11:29:16;;;;;;;33.42;25.15;;;;;;;;;;6225485;23;20793;-90
2021/03/02 11:31:42;;;;;;;39.38;25.30;;;16.80;53.80;;;;;;6216582;23;20008;-90
2021/03/02 11:34:08;;;;;;;35.97;23.95;;;20.50;46.20;;;;;;6217877;23;20341;-91
2021/03/02 11:36:34;;;;;;;37.13;23.42;;;23.60;38.70;;;;;;6198646;23;20015;-91
2021/03/02 11:39:00;;;;;;;33.53;25.00;;;25.70;34.70;;;;;;6221035;23;20080;-90
2021/03/02 11:41:26;;;;;;;30.33;24.23;;;27.20;30.70;;;;;;6195675;23;20008;-92
2021/03/02 11:43:52;;;;;;;31.33;24.38;;;26.90;29.60;;;;;;6225886;23;20016;-91
2021/03/02 11:46:18;;;;;;;33.20;25.58;;;26.30;29.80;;;;;;6218161;23;20464;-91
2021/03/02 11:48:45;;;;;;;33.95;26.38;;;;;;;;;;6223835;23;20011;-90
2021/03/02 11:51:11;;;;;;;36.60;27.58;;;25.80;30.00;;;;;;6215275;23;20081;-90
2021/03/02 11:53:36;;;;;;;32.83;25.73;;;24.20;32.00;;;;;;6213387;23;20454;-91
2021/03/02 11:56:03;;;;;;;32.58;25.15;;;23.70;31.90;;;;;;6214228;23;20016;-90
2021/03/02 11:58:29;;;;;;;34.87;26.27;;;22.70;34.40;;;;;;6240602;23;20015;-90
2021/03/02 12:00:55;;;;;;;34.20;24.80;;;22.30;33.90;;;;;;6239730;23;20004;-91
2021/03/02 12:03:22;;;;;;;32.30;25.75;;;;;;;;;;6215782;23;20243;-90
2021/03/02 12:05:49;;;;;;;29.05;24.55;;;21.50;34.70;;;;;;6213158;23;20004;-90
2021/03/02 12:08:15;;;;;;;33.22;26.70;;;21.10;36.90;;;;;;6190571;23;20016;-90
2021/03/02 12:10:41;;;;;;;34.30;26.63;;;21.50;36.40;;;;;;6214209;23;20038;-90
2021/03/02 12:13:08;;;;;;;32.33;24.70;;;21.60;36.20;;;;;;6214739;23;20039;-90
2021/03/02 12:15:34;;;;;;;31.50;24.83;;;22.50;34.80;;;;;;6188943;23;20016;-91
2021/03/02 12:18:00;;;;;;;33.73;25.60;;;22.80;32.90;;;;;;6191955;23;20036;-90
2021/03/02 12:20:26;;;;;;;36.78;25.30;;;;;;;;;;6213932;23;20021;-90
2021/03/02 12:22:52;;;;;;;34.90;24.95;;;;;;;;;;6186960;23;20013;-89
2021/03/02 12:25:18;;;;;;;35.70;25.37;;;;;;;;;;6213531;23;20016;-91
2021/03/02 12:27:47;;;;;;;32.85;25.88;;;21.60;35.40;;;;;;6204293;23;20022;-92
2021/03/02 12:30:14;;;;;;;39.22;28.77;;;19.40;38.90;;;;;;6227937;23;20035;-93
2021/03/02 12:32:45;;;;;;;32.80;26.05;;;18.70;40.70;;;;;;6229876;22;19999;-94
2021/03/02 12:35:15;;;;;;;39.17;26.48;;;18.80;42.00;;;;;;6221196;23;20035;-95
2021/03/02 12:37:41;;;;;;;34.15;25.25;;;;;;;;;;6208010;23;20008;-94
2021/03/02 12:40:13;;;;;;;33.43;25.53;;;19.00;41.10;;;;;;6269205;23;20089;-94
2021/03/02 12:42:42;;;;;;;34.28;25.95;;;19.60;39.20;;;;;;6237441;23;20223;-94
2021/03/02 12:45:09;;;;;;;35.75;27.08;;;18.70;41.00;;;;;;6241861;23;20823;-94
2021/03/02 12:47:35;;;;;;;32.50;25.40;;;18.50;42.50;;;;;;6212740;23;20016;-94
2021/03/02 12:50:07;;;;;;;35.57;25.17;;;18.60;41.50;;;;;;6238412;23;20004;-90
2021/03/02 12:52:34;;;;;;;35.83;26.35;;;18.40;41.90;;;;;;6237459;23;20005;-93
2021/03/02 12:55:08;;;;;;;35.58;26.40;;;17.40;44.10;;;;;;6235351;23;20004;-95
2021/03/02 12:57:37;;;;;;;32.75;25.58;;;17.20;45.70;;;;;;6220895;23;20030;-92
2021/03/02 13:00:07;;;;;;;33.60;25.92;;;17.20;45.10;;;;;;6220485;23;20015;-93
2021/03/02 13:02:36;;;;;;;33.05;24.48;;;17.20;45.40;;;;;;6233751;23;20012;-94
2021/03/02 13:05:06;;;;;;;39.55;26.30;;;17.40;45.50;;;;;;6240154;23;19988;-94
2021/03/02 13:07:33;;;;;;;34.38;24.73;;;;;;;;;;6239642;23;20020;-95
2021/03/02 13:10:00;;;;;;;30.50;23.77;;;18.10;45.70;;;;;;6229176;23;20012;-94
2021/03/02 13:12:26;;;;;;;;;;;19.50;41.40;;;;;;6227087;23;20019;-94
2021/03/02 13:14:52;;;;;;;34.38;26.63;;;19.20;39.60;;;;;;6203260;23;20418;-94
2021/03/02 13:17:19;;;;;;;30.90;25.42;;;18.80;40.90;;;;;;6236686;22;20016;-95
2021/03/02 13:19:51;;;;;;;31.88;25.05;;;18.60;41.60;;;;;;6237187;23;20004;-95
2021/03/02 13:22:17;;;;;;;36.67;27.52;;;18.10;43.10;;;;;;6241952;23;19988;-95
2021/03/02 13:24:44;;;;;;;33.33;24.92;;;17.50;44.60;;;;;;6233615;23;20004;-94
2021/03/02 13:27:12;;;;;;;32.35;25.13;;;17.50;45.50;;;;;;6231630;23;20016;-91
2021/03/02 13:29:43;;;;;;;30.25;24.73;;;17.90;44.50;;;;;;6236708;23;20019;-91
2021/03/02 13:32:13;;;;;;;31.83;24.55;;;18.10;44.70;;;;;;6238224;23;20068;-92
2021/03/02 13:34:47;;;;;;;40.40;25.27;;;18.00;44.00;;;;;;6236361;23;20008;-91
2021/03/02 13:37:19;;;;;;;39.08;25.55;;;17.90;44.70;;;;;;6269253;23;20047;-91
2021/03/02 13:39:47;;;;;;;38.35;26.05;;;17.80;43.80;;;;;;6204918;23;20071;-91
2021/03/02 13:42:15;;;;;;;37.50;27.45;;;17.40;45.30;;;;;;6266338;23;20325;-91
2021/03/02 13:44:44;;;;;;;37.15;27.13;;;17.10;46.50;;;;;;6271825;23;20004;-91
2021/03/02 13:47:10;;;;;;;42.60;28.35;;;16.50;47.40;;;;;;6232153;23;20043;-90
2021/03/02 13:49:37;;;;;;;40.42;28.42;;;16.40;48.00;;;;;;6194016;23;20016;-90
2021/03/02 13:52:03;;;;;;;40.95;29.10;;;15.90;50.30;;;;;;6248615;23;20056;-88
2021/03/02 13:54:29;;;;;;;35.63;26.38;;;15.60;51.20;;;;;;6220201;23;20008;-89
2021/03/02 13:56:55;;;;;;;42.13;27.50;;;15.30;53.60;;;;;;6193000;23;20016;-89
2021/03/02 13:59:21;;;;;;;40.03;28.00;;;15.50;51.60;;;;;;6194119;23;20023;-88
2021/03/02 14:01:50;;;;;;;36.42;27.15;;;15.30;52.50;;;;;;6192267;23;20063;-88
2021/03/02 14:04:16;;;;;;;38.33;26.23;;;15.00;53.60;;;;;;6194012;23;20456;-88
2021/03/02 14:06:42;;;;;;;39.58;27.80;;;14.90;54.70;;;;;;6217539;23;20009;-88
2021/03/02 14:09:09;;;;;;;40.40;27.88;;;14.70;55.90;;;;;;6192045;23;20016;-88
2021/03/02 14:11:36;;;;;;;42.67;28.57;;;14.50;56.80;;;;;;6216607;23;20012;-88
2021/03/02 14:14:04;;;;;;;38.78;27.55;;;14.30;57.50;;;;;;6218565;23;20012;-88
2021/03/02 14:16:34;;;;;;;41.65;26.10;;;14.10;59.00;;;;;;6217056;23;20448;-88
2021/03/02 14:19:01;;;;;;;46.35;28.45;;;14.10;59.80;;;;;;6244475;23;20491;-88
2021/03/02 14:21:27;;;;;;;41.50;28.67;;;14.10;59.80;;;;;;6216991;23;20012;-88
2021/03/02 14:23:53;;;;;;;42.05;28.30;;;14.10;59.90;;;;;;6216289;23;20169;-90
2021/03/02 14:26:20;;;;;;;40.58;28.65;;;14.00;60.20;;;;;;6190721;23;20016;-90
2021/03/02 14:28:46;;;;;;;46.22;30.25;;;13.80;61.60;;;;;;6160609;23;20016;-90
2021/03/02 14:31:13;;;;;;;43.28;30.65;;;13.50;63.20;;;;;;6182526;23;20012;-90
2021/03/02 14:33:40;;;;;;;42.70;31.80;;;13.40;64.10;;;;;;6156652;23;20023;-90
2021/03/02 14:36:06;;;;;;;45.60;27.85;;;13.10;65.50;;;;;;6208954;23;20016;-90
2021/03/02 14:38:33;;;;;;;45.90;27.40;;;13.00;65.80;;;;;;6154904;23;20043;-90
2021/03/02 14:41:03;;;;;;;45.97;27.17;;;13.10;66.10;;;;;;6182035;23;20313;-89
2021/03/02 14:43:33;;;;;;;43.65;27.95;;;13.10;66.30;;;;;;6181629;23;20005;-90
2021/03/02 14:46:01;;;;;;;45.85;29.60;;;13.00;66.90;;;;;;6181965;23;20012;-90
2021/03/02 14:48:33;;;;;;;43.13;27.60;;;13.00;67.10;;;;;;6180786;23;20012;-89
2021/03/02 14:51:00;;;;;;;38.15;28.63;;;12.90;67.00;;;;;;6182672;23;20012;-90
2021/03/02 14:53:28;;;;;;;43.75;28.20;;;12.70;68.70;;;;;;6183452;23;20401;-90
2021/03/02 14:55:58;;;;;;;39.97;25.77;;;12.50;69.40;;;;;;6181995;23;20020;-90
2021/03/02 14:58:26;;;;;;;40.10;26.23;;;12.40;70.40;;;;;;6175938;23;20021;-89
2021/03/02 15:00:58;;;;;;;42.03;27.25;;;12.20;71.40;;;;;;6179760;23;20032;-90
2021/03/02 15:03:25;;;;;;;36.53;25.88;;;12.10;72.20;;;;;;6181724;23;20005;-89
2021/03/02 15:05:53;;;;;;;38.45;26.10;;;12.00;72.60;;;;;;6205623;23;20476;-89
2021/03/02 15:08:20;;;;;;;39.80;25.77;;;11.90;73.20;;;;;;6183918;23;20040;-90
2021/03/02 15:10:47;;;;;;;41.38;26.85;;;11.70;74.10;;;;;;6183986;23;20091;-90
2021/03/02 15:13:13;;;;;;;40.15;26.17;;;11.50;75.60;;;;;;6211083;23;20755;-90
2021/03/02 15:15:41;;;;;;;39.72;26.55;;;11.30;76.40;;;;;;6210369;23;20135;-90
2021/03/02 15:18:07;;;;;;;;;;;11.20;76.80;;;;;;6185269;23;20051;-91
2021/03/02 15:20:34;;;;;;;41.15;27.38;;;11.10;78.40;;;;;;6182681;23;19954;-91
2021/03/02 15:23:05;;;;;;;38.75;25.80;;;10.90;78.90;;;;;;6184430;23;20476;-90
